sensor_id;sensor_type;location;lat;lon;timestamp;P1;durP1;ratioP1;P2;durP2;ratioP2
43877;SDS011;29815;48.184;11.268;2023-04-28T00:00:31;5.13;;;3.53;;
43877;SDS011;29815;48.184;11.268;2023-04-28T00:03:01;8.10;;;3.92;;
43877;SDS011;29815;48.184;11.268;2023-04-28T00:05:31;7.53;;;3.92;;
43877;SDS011;29815;48.184;11.268;2023-04-28T00:08:02;6.63;;;3.78;;
43877;SDS011;29815;48.184;11.268;2023-04-28T00:10:32;5.18;;;3.88;;
43877;SDS011;29815;48.184;11.268;2023-04-28T00:13:02;3.95;;;2.97;;
43877;SDS011;29815;48.184;11.268;2023-04-28T00:15:31;4.38;;;3.40;;
43877;SDS011;29815;48.184;11.268;2023-04-28T00:18:01;6.75;;;3.58;;
43877;SDS011;29815;48.184;11.268;2023-04-28T00:20:31;5.80;;;3.70;;
43877;SDS011;29815;48.184;11.268;2023-04-28T00:23:02;4.15;;;2.97;;
43877;SDS011;29815;48.184;11.268;2023-04-28T00:25:32;4.93;;;3.70;;
43877;SDS011;29815;48.184;11.268;2023-04-28T00:28:01;4.97;;;3.17;;
43877;SDS011;29815;48.184;11.268;2023-04-28T00:30:31;4.15;;;3.50;;
43877;SDS011;29815;48.184;11.268;2023-04-28T00:33:00;5.07;;;3.90;;
43877;SDS011;29815;48.184;11.268;2023-04-28T00:35:30;5.72;;;3.92;;
43877;SDS011;29815;48.184;11.268;2023-04-28T00:38:01;4.55;;;2.90;;
43877;SDS011;29815;48.184;11.268;2023-04-28T00:40:31;4.45;;;3.75;;
43877;SDS011;29815;48.184;11.268;2023-04-28T00:43:01;5.72;;;3.67;;
43877;SDS011;29815;48.184;11.268;2023-04-28T00:45:32;5.70;;;3.80;;
43877;SDS011;29815;48.184;11.268;2023-04-28T00:48:02;5.03;;;3.50;;
43877;SDS011;29815;48.184;11.268;2023-04-28T00:50:32;10.40;;;4.70;;
43877;SDS011;29815;48.184;11.268;2023-04-28T00:53:03;5.13;;;3.75;;
43877;SDS011;29815;48.184;11.268;2023-04-28T00:55:33;5.72;;;3.78;;
43877;SDS011;29815;48.184;11.268;2023-04-28T00:58:03;6.22;;;3.88;;
43877;SDS011;29815;48.184;11.268;2023-04-28T01:00:34;6.05;;;4.20;;
43877;SDS011;29815;48.184;11.268;2023-04-28T01:03:04;6.20;;;4.15;;
43877;SDS011;29815;48.184;11.268;2023-04-28T01:05:34;9.55;;;3.92;;
43877;SDS011;29815;48.184;11.268;2023-04-28T01:08:06;7.25;;;4.20;;
43877;SDS011;29815;48.184;11.268;2023-04-28T01:10:36;4.87;;;3.93;;
43877;SDS011;29815;48.184;11.268;2023-04-28T01:13:25;4.43;;;3.63;;
43877;SDS011;29815;48.184;11.268;2023-04-28T01:16:02;5.82;;;4.18;;
43877;SDS011;29815;48.184;11.268;2023-04-28T01:18:34;6.47;;;4.20;;
43877;SDS011;29815;48.184;11.268;2023-04-28T01:21:04;6.22;;;4.18;;
43877;SDS011;29815;48.184;11.268;2023-04-28T01:23:35;6.03;;;4.00;;
43877;SDS011;29815;48.184;11.268;2023-04-28T01:26:07;5.15;;;4.00;;
43877;SDS011;29815;48.184;11.268;2023-04-28T01:28:37;4.90;;;3.65;;
43877;SDS011;29815;48.184;11.268;2023-04-28T01:31:06;4.55;;;3.58;;
43877;SDS011;29815;48.184;11.268;2023-04-28T01:33:36;4.88;;;3.78;;
43877;SDS011;29815;48.184;11.268;2023-04-28T01:36:05;6.00;;;3.63;;
43877;SDS011;29815;48.184;11.268;2023-04-28T01:38:36;4.93;;;3.30;;
43877;SDS011;29815;48.184;11.268;2023-04-28T01:41:07;3.90;;;3.20;;
43877;SDS011;29815;48.184;11.268;2023-04-28T01:43:37;4.63;;;3.40;;
43877;SDS011;29815;48.184;11.268;2023-04-28T01:46:06;6.55;;;4.30;;
43877;SDS011;29815;48.184;11.268;2023-04-28T01:48:36;5.40;;;4.72;;
43877;SDS011;29815;48.184;11.268;2023-04-28T01:51:06;6.57;;;4.75;;
43877;SDS011;29815;48.184;11.268;2023-04-28T01:53:38;5.68;;;4.00;;
43877;SDS011;29815;48.184;11.268;2023-04-28T01:56:09;6.90;;;3.80;;
43877;SDS011;29815;48.184;11.268;2023-04-28T01:58:39;4.70;;;3.53;;
43877;SDS011;29815;48.184;11.268;2023-04-28T02:01:09;6.43;;;3.25;;
43877;SDS011;29815;48.184;11.268;2023-04-28T02:03:38;4.97;;;3.80;;
43877;SDS011;29815;48.184;11.268;2023-04-28T02:06:08;5.25;;;4.53;;
43877;SDS011;29815;48.184;11.268;2023-04-28T02:08:38;6.10;;;4.88;;
43877;SDS011;29815;48.184;11.268;2023-04-28T02:11:09;6.18;;;4.32;;
43877;SDS011;29815;48.184;11.268;2023-04-28T02:13:38;7.13;;;4.88;;
43877;SDS011;29815;48.184;11.268;2023-04-28T02:16:07;8.35;;;5.20;;
43877;SDS011;29815;48.184;11.268;2023-04-28T02:18:37;7.72;;;4.63;;
43877;SDS011;29815;48.184;11.268;2023-04-28T02:21:07;5.53;;;4.63;;
43877;SDS011;29815;48.184;11.268;2023-04-28T02:23:38;4.97;;;4.20;;
43877;SDS011;29815;48.184;11.268;2023-04-28T02:26:09;5.30;;;4.13;;
43877;SDS011;29815;48.184;11.268;2023-04-28T02:28:39;6.20;;;4.63;;
43877;SDS011;29815;48.184;11.268;2023-04-28T02:31:09;6.88;;;5.40;;
43877;SDS011;29815;48.184;11.268;2023-04-28T02:33:40;7.55;;;4.38;;
43877;SDS011;29815;48.184;11.268;2023-04-28T02:36:10;6.85;;;4.60;;
43877;SDS011;29815;48.184;11.268;2023-04-28T02:38:39;5.57;;;4.53;;
43877;SDS011;29815;48.184;11.268;2023-04-28T02:41:12;6.07;;;5.22;;
43877;SDS011;29815;48.184;11.268;2023-04-28T02:43:42;4.97;;;4.47;;
43877;SDS011;29815;48.184;11.268;2023-04-28T02:46:12;6.13;;;4.53;;
43877;SDS011;29815;48.184;11.268;2023-04-28T02:48:42;5.68;;;4.70;;
43877;SDS011;29815;48.184;11.268;2023-04-28T02:51:12;6.35;;;4.35;;
43877;SDS011;29815;48.184;11.268;2023-04-28T02:53:41;7.68;;;5.20;;
43877;SDS011;29815;48.184;11.268;2023-04-28T02:56:12;8.07;;;4.97;;
43877;SDS011;29815;48.184;11.268;2023-04-28T02:58:42;7.88;;;5.20;;
43877;SDS011;29815;48.184;11.268;2023-04-28T03:01:11;5.95;;;4.68;;
43877;SDS011;29815;48.184;11.268;2023-04-28T03:03:41;5.53;;;5.03;;
43877;SDS011;29815;48.184;11.268;2023-04-28T03:06:11;5.38;;;4.88;;
43877;SDS011;29815;48.184;11.268;2023-04-28T03:08:40;6.63;;;4.90;;
43877;SDS011;29815;48.184;11.268;2023-04-28T03:11:10;6.38;;;5.32;;
43877;SDS011;29815;48.184;11.268;2023-04-28T03:13:41;9.52;;;6.07;;
43877;SDS011;29815;48.184;11.268;2023-04-28T03:16:10;8.25;;;6.03;;
43877;SDS011;29815;48.184;11.268;2023-04-28T03:18:40;7.55;;;5.57;;
43877;SDS011;29815;48.184;11.268;2023-04-28T03:21:10;7.50;;;5.80;;
43877;SDS011;29815;48.184;11.268;2023-04-28T03:23:40;6.38;;;5.70;;
43877;SDS011;29815;48.184;11.268;2023-04-28T03:26:09;8.82;;;6.63;;
43877;SDS011;29815;48.184;11.268;2023-04-28T03:28:41;8.85;;;6.80;;
43877;SDS011;29815;48.184;11.268;2023-04-28T03:31:11;9.50;;;6.43;;
43877;SDS011;29815;48.184;11.268;2023-04-28T03:33:40;6.55;;;5.28;;
43877;SDS011;29815;48.184;11.268;2023-04-28T03:36:12;7.15;;;5.40;;
43877;SDS011;29815;48.184;11.268;2023-04-28T03:38:42;5.32;;;4.80;;
43877;SDS011;29815;48.184;11.268;2023-04-28T03:41:11;6.47;;;5.00;;
43877;SDS011;29815;48.184;11.268;2023-04-28T03:44:08;5.18;;;4.28;;
43877;SDS011;29815;48.184;11.268;2023-04-28T03:46:45;6.88;;;4.18;;
43877;SDS011;29815;48.184;11.268;2023-04-28T03:49:15;6.35;;;4.75;;
43877;SDS011;29815;48.184;11.268;2023-04-28T03:51:45;6.57;;;4.90;;
43877;SDS011;29815;48.184;11.268;2023-04-28T03:54:16;6.43;;;4.65;;
43877;SDS011;29815;48.184;11.268;2023-04-28T03:56:45;7.32;;;4.40;;
43877;SDS011;29815;48.184;11.268;2023-04-28T03:59:16;5.47;;;4.47;;
43877;SDS011;29815;48.184;11.268;2023-04-28T04:01:46;6.43;;;4.65;;
43877;SDS011;29815;48.184;11.268;2023-04-28T04:04:16;5.10;;;4.05;;
43877;SDS011;29815;48.184;11.268;2023-04-28T04:06:46;5.90;;;3.90;;
43877;SDS011;29815;48.184;11.268;2023-04-28T04:09:15;5.55;;;3.97;;
43877;SDS011;29815;48.184;11.268;2023-04-28T04:11:45;7.30;;;4.18;;
43877;SDS011;29815;48.184;11.268;2023-04-28T04:14:15;5.55;;;4.13;;
43877;SDS011;29815;48.184;11.268;2023-04-28T04:16:45;5.53;;;4.05;;
43877;SDS011;29815;48.184;11.268;2023-04-28T04:19:15;5.80;;;4.03;;
43877;SDS011;29815;48.184;11.268;2023-04-28T04:21:49;9.38;;;4.30;;
43877;SDS011;29815;48.184;11.268;2023-04-28T04:24:19;4.63;;;4.05;;
43877;SDS011;29815;48.184;11.268;2023-04-28T04:26:49;4.85;;;3.67;;
43877;SDS011;29815;48.184;11.268;2023-04-28T04:29:30;5.20;;;4.35;;
43877;SDS011;29815;48.184;11.268;2023-04-28T04:32:02;5.32;;;4.05;;
43877;SDS011;29815;48.184;11.268;2023-04-28T04:34:33;5.50;;;4.78;;
43877;SDS011;29815;48.184;11.268;2023-04-28T04:37:03;9.30;;;5.35;;
43877;SDS011;29815;48.184;11.268;2023-04-28T04:39:34;8.35;;;5.65;;
43877;SDS011;29815;48.184;11.268;2023-04-28T04:42:03;8.18;;;5.65;;
43877;SDS011;29815;48.184;11.268;2023-04-28T04:45:18;8.50;;;7.28;;
43877;SDS011;29815;48.184;11.268;2023-04-28T04:47:49;7.80;;;6.82;;
43877;SDS011;29815;48.184;11.268;2023-04-28T04:50:19;10.95;;;7.03;;
43877;SDS011;29815;48.184;11.268;2023-04-28T04:52:49;10.35;;;7.60;;
43877;SDS011;29815;48.184;11.268;2023-04-28T04:55:20;7.32;;;6.10;;
43877;SDS011;29815;48.184;11.268;2023-04-28T04:57:51;13.02;;;7.10;;
43877;SDS011;29815;48.184;11.268;2023-04-28T05:01:00;8.50;;;6.80;;
43877;SDS011;29815;48.184;11.268;2023-04-28T05:03:30;8.93;;;6.53;;
43877;SDS011;29815;48.184;11.268;2023-04-28T05:06:00;8.77;;;5.60;;
43877;SDS011;29815;48.184;11.268;2023-04-28T05:08:45;8.95;;;6.10;;
43877;SDS011;29815;48.184;11.268;2023-04-28T05:11:15;8.40;;;5.80;;
43877;SDS011;29815;48.184;11.268;2023-04-28T05:13:46;7.07;;;6.00;;
43877;SDS011;29815;48.184;11.268;2023-04-28T05:16:17;7.78;;;6.18;;
43877;SDS011;29815;48.184;11.268;2023-04-28T05:18:55;8.07;;;6.13;;
43877;SDS011;29815;48.184;11.268;2023-04-28T05:21:24;7.82;;;6.25;;
43877;SDS011;29815;48.184;11.268;2023-04-28T05:23:54;9.65;;;6.70;;
43877;SDS011;29815;48.184;11.268;2023-04-28T05:26:24;10.73;;;6.63;;
43877;SDS011;29815;48.184;11.268;2023-04-28T05:31:28;10.88;;;5.97;;
43877;SDS011;29815;48.184;11.268;2023-04-28T05:33:58;7.82;;;5.93;;
43877;SDS011;29815;48.184;11.268;2023-04-28T05:36:27;10.93;;;7.22;;
43877;SDS011;29815;48.184;11.268;2023-04-28T05:38:58;13.93;;;7.10;;
43877;SDS011;29815;48.184;11.268;2023-04-28T05:41:28;9.80;;;6.65;;
43877;SDS011;29815;48.184;11.268;2023-04-28T05:43:57;10.90;;;7.88;;
43877;SDS011;29815;48.184;11.268;2023-04-28T05:46:28;10.00;;;7.47;;
43877;SDS011;29815;48.184;11.268;2023-04-28T05:48:59;6.73;;;5.20;;
43877;SDS011;29815;48.184;11.268;2023-04-28T05:51:33;7.53;;;4.95;;
43877;SDS011;29815;48.184;11.268;2023-04-28T05:54:02;10.88;;;5.57;;
43877;SDS011;29815;48.184;11.268;2023-04-28T05:56:37;5.88;;;4.40;;
43877;SDS011;29815;48.184;11.268;2023-04-28T05:59:08;5.93;;;3.97;;
43877;SDS011;29815;48.184;11.268;2023-04-28T06:01:39;5.43;;;3.55;;
43877;SDS011;29815;48.184;11.268;2023-04-28T06:04:08;6.35;;;4.50;;
43877;SDS011;29815;48.184;11.268;2023-04-28T06:06:38;6.22;;;4.25;;
43877;SDS011;29815;48.184;11.268;2023-04-28T06:09:08;4.90;;;4.25;;
43877;SDS011;29815;48.184;11.268;2023-04-28T06:11:37;4.15;;;3.38;;
43877;SDS011;29815;48.184;11.268;2023-04-28T06:14:07;4.72;;;3.40;;
43877;SDS011;29815;48.184;11.268;2023-04-28T06:16:36;5.00;;;3.75;;
43877;SDS011;29815;48.184;11.268;2023-04-28T06:19:07;4.50;;;3.72;;
43877;SDS011;29815;48.184;11.268;2023-04-28T06:21:37;4.05;;;2.67;;
43877;SDS011;29815;48.184;11.268;2023-04-28T06:24:07;5.32;;;2.90;;
43877;SDS011;29815;48.184;11.268;2023-04-28T06:26:38;3.65;;;2.45;;
43877;SDS011;29815;48.184;11.268;2023-04-28T06:29:08;2.78;;;2.35;;
43877;SDS011;29815;48.184;11.268;2023-04-28T06:31:39;3.63;;;2.63;;
43877;SDS011;29815;48.184;11.268;2023-04-28T06:34:09;2.85;;;2.03;;
43877;SDS011;29815;48.184;11.268;2023-04-28T06:36:39;2.25;;;1.85;;
43877;SDS011;29815;48.184;11.268;2023-04-28T06:39:10;2.22;;;1.70;;
43877;SDS011;29815;48.184;11.268;2023-04-28T06:41:39;2.53;;;1.70;;
43877;SDS011;29815;48.184;11.268;2023-04-28T06:44:10;2.88;;;1.77;;
43877;SDS011;29815;48.184;11.268;2023-04-28T06:46:41;2.42;;;1.85;;
43877;SDS011;29815;48.184;11.268;2023-04-28T06:49:11;3.55;;;2.00;;
43877;SDS011;29815;48.184;11.268;2023-04-28T06:51:42;2.78;;;1.35;;
43877;SDS011;29815;48.184;11.268;2023-04-28T06:54:12;3.05;;;1.70;;
43877;SDS011;29815;48.184;11.268;2023-04-28T06:56:43;2.95;;;1.48;;
43877;SDS011;29815;48.184;11.268;2023-04-28T06:59:13;2.53;;;1.63;;
43877;SDS011;29815;48.184;11.268;2023-04-28T07:01:43;4.30;;;1.48;;
43877;SDS011;29815;48.184;11.268;2023-04-28T07:04:13;1.77;;;1.30;;
43877;SDS011;29815;48.184;11.268;2023-04-28T07:06:44;2.20;;;1.50;;
43877;SDS011;29815;48.184;11.268;2023-04-28T07:09:13;2.28;;;1.35;;
43877;SDS011;29815;48.184;11.268;2023-04-28T07:11:43;2.42;;;1.10;;
43877;SDS011;29815;48.184;11.268;2023-04-28T07:14:13;3.05;;;1.33;;
43877;SDS011;29815;48.184;11.268;2023-04-28T07:16:45;1.80;;;1.13;;
43877;SDS011;29815;48.184;11.268;2023-04-28T07:19:15;1.38;;;1.00;;
43877;SDS011;29815;48.184;11.268;2023-04-28T07:21:44;2.78;;;0.90;;
43877;SDS011;29815;48.184;11.268;2023-04-28T07:24:13;2.38;;;1.27;;
43877;SDS011;29815;48.184;11.268;2023-04-28T07:26:43;1.30;;;1.00;;
43877;SDS011;29815;48.184;11.268;2023-04-28T07:29:13;0.98;;;0.88;;
43877;SDS011;29815;48.184;11.268;2023-04-28T07:31:42;1.50;;;0.98;;
43877;SDS011;29815;48.184;11.268;2023-04-28T07:34:14;2.05;;;1.23;;
43877;SDS011;29815;48.184;11.268;2023-04-28T07:36:44;1.60;;;0.90;;
43877;SDS011;29815;48.184;11.268;2023-04-28T07:39:14;2.05;;;1.40;;
43877;SDS011;29815;48.184;11.268;2023-04-28T07:41:44;1.65;;;1.00;;
43877;SDS011;29815;48.184;11.268;2023-04-28T07:44:13;1.35;;;0.80;;
43877;SDS011;29815;48.184;11.268;2023-04-28T07:46:45;2.83;;;1.10;;
43877;SDS011;29815;48.184;11.268;2023-04-28T07:49:16;1.73;;;1.00;;
43877;SDS011;29815;48.184;11.268;2023-04-28T07:51:46;2.13;;;1.10;;
43877;SDS011;29815;48.184;11.268;2023-04-28T07:54:16;1.77;;;1.35;;
43877;SDS011;29815;48.184;11.268;2023-04-28T07:56:46;2.25;;;1.30;;
43877;SDS011;29815;48.184;11.268;2023-04-28T07:59:15;2.47;;;1.42;;
43877;SDS011;29815;48.184;11.268;2023-04-28T08:01:46;1.60;;;1.23;;
43877;SDS011;29815;48.184;11.268;2023-04-28T11:49:03;4.90;;;1.88;;
43877;SDS011;29815;48.184;11.268;2023-04-28T11:51:34;3.22;;;2.10;;
43877;SDS011;29815;48.184;11.268;2023-04-28T11:54:06;2.77;;;1.80;;
43877;SDS011;29815;48.184;11.268;2023-04-28T11:56:38;3.35;;;1.60;;
43877;SDS011;29815;48.184;11.268;2023-04-28T11:59:09;2.00;;;1.70;;
43877;SDS011;29815;48.184;11.268;2023-04-28T12:01:44;5.47;;;1.92;;
43877;SDS011;29815;48.184;11.268;2023-04-28T12:04:27;2.97;;;1.85;;
43877;SDS011;29815;48.184;11.268;2023-04-28T12:07:02;2.58;;;1.50;;
43877;SDS011;29815;48.184;11.268;2023-04-28T12:09:37;4.50;;;1.80;;
43877;SDS011;29815;48.184;11.268;2023-04-28T12:12:10;4.15;;;1.73;;
43877;SDS011;29815;48.184;11.268;2023-04-28T12:14:54;3.33;;;1.55;;
43877;SDS011;29815;48.184;11.268;2023-04-28T12:17:26;3.60;;;1.85;;
43877;SDS011;29815;48.184;11.268;2023-04-28T12:19:59;3.90;;;1.90;;
43877;SDS011;29815;48.184;11.268;2023-04-28T12:22:41;3.13;;;1.67;;
43877;SDS011;29815;48.184;11.268;2023-04-28T12:25:13;1.98;;;1.40;;
43877;SDS011;29815;48.184;11.268;2023-04-28T12:27:57;4.68;;;1.33;;
43877;SDS011;29815;48.184;11.268;2023-04-28T12:30:30;3.00;;;2.30;;
43877;SDS011;29815;48.184;11.268;2023-04-28T12:33:01;3.20;;;1.93;;
43877;SDS011;29815;48.184;11.268;2023-04-28T12:35:32;3.47;;;1.92;;
43877;SDS011;29815;48.184;11.268;2023-04-28T12:38:02;1.98;;;1.50;;
43877;SDS011;29815;48.184;11.268;2023-04-28T12:40:32;2.78;;;1.50;;
43877;SDS011;29815;48.184;11.268;2023-04-28T12:43:02;2.90;;;1.75;;
43877;SDS011;29815;48.184;11.268;2023-04-28T12:45:31;3.53;;;2.15;;
43877;SDS011;29815;48.184;11.268;2023-04-28T12:48:02;5.32;;;2.50;;
43877;SDS011;29815;48.184;11.268;2023-04-28T12:50:33;3.20;;;2.13;;
43877;SDS011;29815;48.184;11.268;2023-04-28T12:53:03;1.83;;;1.35;;
43877;SDS011;29815;48.184;11.268;2023-04-28T12:55:32;1.60;;;1.23;;
43877;SDS011;29815;48.184;11.268;2023-04-28T12:58:02;2.55;;;1.45;;
43877;SDS011;29815;48.184;11.268;2023-04-28T13:00:31;1.52;;;1.20;;
43877;SDS011;29815;48.184;11.268;2023-04-28T13:03:01;2.30;;;1.20;;
43877;SDS011;29815;48.184;11.268;2023-04-28T13:05:33;3.25;;;1.50;;
43877;SDS011;29815;48.184;11.268;2023-04-28T13:08:03;2.38;;;1.17;;
43877;SDS011;29815;48.184;11.268;2023-04-28T13:10:33;2.22;;;1.50;;
43877;SDS011;29815;48.184;11.268;2023-04-28T13:13:03;3.20;;;1.17;;
43877;SDS011;29815;48.184;11.268;2023-04-28T13:15:33;1.83;;;1.45;;
43877;SDS011;29815;48.184;11.268;2023-04-28T13:18:05;1.25;;;0.82;;
43877;SDS011;29815;48.184;11.268;2023-04-28T13:20:36;1.80;;;0.93;;
43877;SDS011;29815;48.184;11.268;2023-04-28T13:23:06;1.35;;;0.98;;
43877;SDS011;29815;48.184;11.268;2023-04-28T13:25:35;1.58;;;0.73;;
43877;SDS011;29815;48.184;11.268;2023-04-28T13:28:05;2.17;;;0.80;;
43877;SDS011;29815;48.184;11.268;2023-04-28T13:30:34;2.83;;;0.90;;
43877;SDS011;29815;48.184;11.268;2023-04-28T13:33:04;2.70;;;1.38;;
43877;SDS011;29815;48.184;11.268;2023-04-28T13:35:35;2.03;;;1.27;;
43877;SDS011;29815;48.184;11.268;2023-04-28T13:38:05;1.30;;;0.77;;
43877;SDS011;29815;48.184;11.268;2023-04-28T13:40:35;1.00;;;0.70;;
43877;SDS011;29815;48.184;11.268;2023-04-28T13:43:04;1.88;;;0.82;;
43877;SDS011;29815;48.184;11.268;2023-04-28T13:45:34;1.25;;;0.68;;
43877;SDS011;29815;48.184;11.268;2023-04-28T13:48:03;3.10;;;1.15;;
43877;SDS011;29815;48.184;11.268;2023-04-28T13:50:33;1.05;;;0.80;;
43877;SDS011;29815;48.184;11.268;2023-04-28T13:53:06;1.63;;;1.00;;
43877;SDS011;29815;48.184;11.268;2023-04-28T13:55:35;1.83;;;0.82;;
43877;SDS011;29815;48.184;11.268;2023-04-28T13:58:05;1.65;;;0.70;;
43877;SDS011;29815;48.184;11.268;2023-04-28T14:00:35;0.98;;;0.68;;
43877;SDS011;29815;48.184;11.268;2023-04-28T14:03:05;2.83;;;1.38;;
43877;SDS011;29815;48.184;11.268;2023-04-28T14:05:37;2.65;;;1.80;;
43877;SDS011;29815;48.184;11.268;2023-04-28T14:08:15;1.63;;;1.05;;
43877;SDS011;29815;48.184;11.268;2023-04-28T14:10:47;3.13;;;0.68;;
43877;SDS011;29815;48.184;11.268;2023-04-28T14:13:17;1.13;;;0.60;;
43877;SDS011;29815;48.184;11.268;2023-04-28T14:15:47;0.50;;;0.40;;
43877;SDS011;29815;48.184;11.268;2023-04-28T14:18:26;2.03;;;0.80;;
43877;SDS011;29815;48.184;11.268;2023-04-28T14:20:57;0.70;;;0.68;;
43877;SDS011;29815;48.184;11.268;2023-04-28T14:23:28;1.08;;;0.85;;
43877;SDS011;29815;48.184;11.268;2023-04-28T14:25:57;0.98;;;0.60;;
43877;SDS011;29815;48.184;11.268;2023-04-28T14:28:27;0.90;;;0.55;;
43877;SDS011;29815;48.184;11.268;2023-04-28T14:30:56;1.40;;;0.70;;
43877;SDS011;29815;48.184;11.268;2023-04-28T14:33:32;3.30;;;0.95;;
43877;SDS011;29815;48.184;11.268;2023-04-28T14:36:03;1.77;;;0.85;;
43877;SDS011;29815;48.184;11.268;2023-04-28T14:38:33;2.80;;;0.73;;
43877;SDS011;29815;48.184;11.268;2023-04-28T14:41:06;1.73;;;1.20;;
43877;SDS011;29815;48.184;11.268;2023-04-28T14:43:35;0.80;;;0.65;;
43877;SDS011;29815;48.184;11.268;2023-04-28T14:46:05;1.48;;;0.90;;
43877;SDS011;29815;48.184;11.268;2023-04-28T14:48:35;2.15;;;1.10;;
43877;SDS011;29815;48.184;11.268;2023-04-28T14:51:06;1.00;;;0.80;;
43877;SDS011;29815;48.184;11.268;2023-04-28T14:53:35;1.83;;;0.90;;
43877;SDS011;29815;48.184;11.268;2023-04-28T14:56:05;0.77;;;0.70;;
43877;SDS011;29815;48.184;11.268;2023-04-28T14:58:47;1.63;;;1.00;;
43877;SDS011;29815;48.184;11.268;2023-04-28T15:01:17;1.88;;;1.02;;
43877;SDS011;29815;48.184;11.268;2023-04-28T15:03:46;3.45;;;1.63;;
43877;SDS011;29815;48.184;11.268;2023-04-28T15:06:18;1.95;;;1.10;;
43877;SDS011;29815;48.184;11.268;2023-04-28T15:08:48;2.03;;;1.00;;
43877;SDS011;29815;48.184;11.268;2023-04-28T15:11:18;1.63;;;1.05;;
43877;SDS011;29815;48.184;11.268;2023-04-28T15:13:47;2.28;;;1.15;;
43877;SDS011;29815;48.184;11.268;2023-04-28T15:16:17;1.00;;;0.70;;
43877;SDS011;29815;48.184;11.268;2023-04-28T15:18:46;2.60;;;1.17;;
43877;SDS011;29815;48.184;11.268;2023-04-28T15:21:16;1.77;;;1.10;;
43877;SDS011;29815;48.184;11.268;2023-04-28T15:23:47;3.63;;;1.60;;
43877;SDS011;29815;48.184;11.268;2023-04-28T15:26:16;2.78;;;1.17;;
43877;SDS011;29815;48.184;11.268;2023-04-28T15:28:46;1.85;;;1.17;;
43877;SDS011;29815;48.184;11.268;2023-04-28T15:31:15;2.35;;;1.23;;
43877;SDS011;29815;48.184;11.268;2023-04-28T15:33:45;2.63;;;1.33;;
43877;SDS011;29815;48.184;11.268;2023-04-28T15:36:14;2.47;;;1.42;;
43877;SDS011;29815;48.184;11.268;2023-04-28T15:38:47;2.65;;;1.20;;
43877;SDS011;29815;48.184;11.268;2023-04-28T15:41:18;1.53;;;1.40;;
43877;SDS011;29815;48.184;11.268;2023-04-28T15:43:48;2.20;;;1.30;;
43877;SDS011;29815;48.184;11.268;2023-04-28T15:46:17;1.80;;;1.40;;
43877;SDS011;29815;48.184;11.268;2023-04-28T15:48:48;2.05;;;1.38;;
43877;SDS011;29815;48.184;11.268;2023-04-28T15:51:17;2.80;;;1.30;;
43877;SDS011;29815;48.184;11.268;2023-04-28T15:53:48;2.65;;;1.40;;
43877;SDS011;29815;48.184;11.268;2023-04-28T15:56:18;3.22;;;1.67;;
43877;SDS011;29815;48.184;11.268;2023-04-28T15:58:49;2.33;;;1.40;;
43877;SDS011;29815;48.184;11.268;2023-04-28T16:01:19;2.80;;;1.40;;
43877;SDS011;29815;48.184;11.268;2023-04-28T16:03:48;2.33;;;1.10;;
43877;SDS011;29815;48.184;11.268;2023-04-28T16:06:18;1.10;;;0.90;;
43877;SDS011;29815;48.184;11.268;2023-04-28T16:08:49;2.67;;;1.05;;
43877;SDS011;29815;48.184;11.268;2023-04-28T16:11:19;1.77;;;1.08;;
43877;SDS011;29815;48.184;11.268;2023-04-28T16:13:49;2.35;;;1.40;;
43877;SDS011;29815;48.184;11.268;2023-04-28T16:16:21;1.65;;;1.20;;
43877;SDS011;29815;48.184;11.268;2023-04-28T16:18:51;2.53;;;1.20;;
43877;SDS011;29815;48.184;11.268;2023-04-28T16:21:22;2.47;;;1.25;;
43877;SDS011;29815;48.184;11.268;2023-04-28T16:23:53;2.75;;;1.20;;
43877;SDS011;29815;48.184;11.268;2023-04-28T16:26:23;2.97;;;1.75;;
43877;SDS011;29815;48.184;11.268;2023-04-28T16:28:53;2.85;;;1.63;;
43877;SDS011;29815;48.184;11.268;2023-04-28T16:31:23;2.95;;;2.05;;
43877;SDS011;29815;48.184;11.268;2023-04-28T16:33:52;3.00;;;2.22;;
43877;SDS011;29815;48.184;11.268;2023-04-28T16:36:22;3.53;;;2.63;;
43877;SDS011;29815;48.184;11.268;2023-04-28T16:38:53;3.83;;;2.17;;
43877;SDS011;29815;48.184;11.268;2023-04-28T16:41:23;3.90;;;3.45;;
43877;SDS011;29815;48.184;11.268;2023-04-28T16:43:52;5.80;;;3.38;;
43877;SDS011;29815;48.184;11.268;2023-04-28T16:46:22;5.18;;;3.42;;
43877;SDS011;29815;48.184;11.268;2023-04-28T16:48:52;4.95;;;1.58;;
43877;SDS011;29815;48.184;11.268;2023-04-28T16:51:21;2.92;;;1.50;;
43877;SDS011;29815;48.184;11.268;2023-04-28T16:53:51;1.90;;;1.17;;
43877;SDS011;29815;48.184;11.268;2023-04-28T16:56:22;2.10;;;1.13;;
43877;SDS011;29815;48.184;11.268;2023-04-28T16:58:51;4.53;;;1.85;;
43877;SDS011;29815;48.184;11.268;2023-04-28T17:01:21;4.03;;;1.90;;
43877;SDS011;29815;48.184;11.268;2023-04-28T17:03:51;2.53;;;2.00;;
43877;SDS011;29815;48.184;11.268;2023-04-28T17:06:21;3.35;;;2.00;;
43877;SDS011;29815;48.184;11.268;2023-04-28T17:08:51;3.15;;;1.95;;
43877;SDS011;29815;48.184;11.268;2023-04-28T17:11:23;4.97;;;2.70;;
43877;SDS011;29815;48.184;11.268;2023-04-28T17:13:53;3.95;;;2.65;;
43877;SDS011;29815;48.184;11.268;2023-04-28T17:16:22;4.28;;;2.22;;
43877;SDS011;29815;48.184;11.268;2023-04-28T17:18:52;2.88;;;1.60;;
43877;SDS011;29815;48.184;11.268;2023-04-28T17:21:22;3.70;;;1.65;;
43877;SDS011;29815;48.184;11.268;2023-04-28T17:23:54;4.07;;;1.90;;
43877;SDS011;29815;48.184;11.268;2023-04-28T17:26:26;3.72;;;3.13;;
43877;SDS011;29815;48.184;11.268;2023-04-28T17:28:58;2.83;;;2.22;;
43877;SDS011;29815;48.184;11.268;2023-04-28T17:31:29;2.53;;;1.08;;
43877;SDS011;29815;48.184;11.268;2023-04-28T17:33:58;2.05;;;0.95;;
43877;SDS011;29815;48.184;11.268;2023-04-28T17:36:28;5.05;;;1.20;;
43877;SDS011;29815;48.184;11.268;2023-04-28T17:38:58;2.65;;;1.50;;
43877;SDS011;29815;48.184;11.268;2023-04-28T17:41:30;2.88;;;1.50;;
43877;SDS011;29815;48.184;11.268;2023-04-28T17:44:00;2.20;;;1.17;;
43877;SDS011;29815;48.184;11.268;2023-04-28T17:46:30;4.25;;;2.42;;
43877;SDS011;29815;48.184;11.268;2023-04-28T17:48:59;3.88;;;3.05;;
43877;SDS011;29815;48.184;11.268;2023-04-28T17:51:29;3.75;;;2.95;;
43877;SDS011;29815;48.184;11.268;2023-04-28T17:53:58;5.22;;;2.63;;
43877;SDS011;29815;48.184;11.268;2023-04-28T17:56:28;9.25;;;3.35;;
43877;SDS011;29815;48.184;11.268;2023-04-28T17:58:59;3.45;;;3.05;;
43877;SDS011;29815;48.184;11.268;2023-04-28T18:01:29;4.85;;;3.75;;
43877;SDS011;29815;48.184;11.268;2023-04-28T18:04:01;5.93;;;4.20;;
43877;SDS011;29815;48.184;11.268;2023-04-28T18:06:30;5.38;;;4.15;;
43877;SDS011;29815;48.184;11.268;2023-04-28T18:09:00;5.68;;;4.82;;
43877;SDS011;29815;48.184;11.268;2023-04-28T18:11:31;6.28;;;4.65;;
43877;SDS011;29815;48.184;11.268;2023-04-28T18:14:01;6.10;;;5.18;;
43877;SDS011;29815;48.184;11.268;2023-04-28T18:16:30;7.13;;;6.43;;
43877;SDS011;29815;48.184;11.268;2023-04-28T18:19:00;9.70;;;6.45;;
43877;SDS011;29815;48.184;11.268;2023-04-28T18:21:29;8.18;;;5.63;;
43877;SDS011;29815;48.184;11.268;2023-04-28T18:24:00;10.43;;;5.88;;
43877;SDS011;29815;48.184;11.268;2023-04-28T18:26:31;11.07;;;6.32;;
43877;SDS011;29815;48.184;11.268;2023-04-28T18:29:00;6.72;;;5.85;;
43877;SDS011;29815;48.184;11.268;2023-04-28T18:31:30;8.93;;;8.05;;
43877;SDS011;29815;48.184;11.268;2023-04-28T18:34:00;8.93;;;6.95;;
43877;SDS011;29815;48.184;11.268;2023-04-28T18:36:32;9.82;;;6.80;;
43877;SDS011;29815;48.184;11.268;2023-04-28T18:39:02;11.65;;;10.35;;
43877;SDS011;29815;48.184;11.268;2023-04-28T18:41:36;11.07;;;8.40;;